Terminal Aerodrome Forecast
Issued by NWS

Home | Current Version | Previous Version | Text Only | Print | Product List | Glossary On
Versions: 1 2 3 4 5 6 7 8 9 10 11 12 13 14 15
000
FTUS44 KLIX 232340
TAFHDC
TAF
KHDC 232340Z 2400/2424 29004KT P6SM FEW040 BKN250
     FM240600 VRB03KT P6SM VCSH SCT040 BKN100
     FM240900 00000KT P6SM SCT030 BKN070 PROB30 2409/2415 4SM TSRA
      BKN020CB BKN025 BKN030
     FM241500 25006KT P6SM SCT025 BKN080 PROB30 2415/2418 4SM TSRA
      BKN025CB
     FM241800 25006KT P6SM -SHRA VCTS SCT025CB BKN080=

USA.gov is the U.S. government's official web portal to all federal, state and local government web resources and services.